createdAt,value
2022-12-01T00:04:24.817Z,9.02
2022-12-01T00:09:46.650Z,9.20
2022-12-01T00:14:55.311Z,9.95
2022-12-01T00:19:59.857Z,8.70
2022-12-01T00:25:02.973Z,4.15
2022-12-01T00:30:08.699Z,8.43
2022-12-01T00:35:12.410Z,9.27
2022-12-01T00:40:15.389Z,9.73
2022-12-01T00:45:18.531Z,10.23
2022-12-01T00:50:21.569Z,7.63
2022-12-01T00:55:24.501Z,9.93
2022-12-01T01:00:27.597Z,9.32
2022-12-01T01:05:31.565Z,9.52
2022-12-01T01:10:34.668Z,9.50
2022-12-01T01:15:37.858Z,8.95
2022-12-01T01:20:40.811Z,9.07
2022-12-01T01:25:43.623Z,9.32
2022-12-01T01:30:47.348Z,10.27
2022-12-01T01:35:50.377Z,9.73
2022-12-01T01:40:53.293Z,9.98
2022-12-01T01:45:56.416Z,11.13
2022-12-01T01:50:59.576Z,10.60
2022-12-01T01:56:03.695Z,9.38
2022-12-01T02:01:07.443Z,10.88
2022-12-01T02:06:11.661Z,9.48
2022-12-01T02:11:33.754Z,9.88
2022-12-01T02:16:51.159Z,9.77
2022-12-01T02:22:05.996Z,10.07
2022-12-01T02:27:21.263Z,5.18
2022-12-01T02:37:58.413Z,9.90
2022-12-01T02:43:08.229Z,9.10
2022-12-01T02:48:39.292Z,9.63
2022-12-01T02:53:42.665Z,9.75
2022-12-01T02:58:45.527Z,8.80
2022-12-01T03:04:09.456Z,9.48
2022-12-01T03:09:25.101Z,8.68
2022-12-01T03:15:01.904Z,9.65
2022-12-01T03:20:25.260Z,9.18
2022-12-01T03:30:36.022Z,9.07
2022-12-01T03:35:50.356Z,9.05
2022-12-01T03:41:01.902Z,8.93
2022-12-01T03:46:14.051Z,8.90
2022-12-01T03:51:27.255Z,9.93
2022-12-01T03:56:36.836Z,8.63
2022-12-01T04:01:40.106Z,9.50
2022-12-01T04:06:46.933Z,9.68
2022-12-01T04:12:08.487Z,9.50
2022-12-01T04:17:11.535Z,7.50
2022-12-01T04:22:14.466Z,9.60
2022-12-01T04:27:17.578Z,10.25
2022-12-01T04:32:20.772Z,10.05
2022-12-01T04:37:23.758Z,9.90
2022-12-01T04:42:26.795Z,9.15
2022-12-01T04:47:29.735Z,8.43
2022-12-01T04:52:35.407Z,10.35
2022-12-01T04:57:39.779Z,10.52
2022-12-01T05:02:43.925Z,11.25
2022-12-01T05:07:46.957Z,9.75
2022-12-01T05:12:50.182Z,10.63
2022-12-01T05:17:53.132Z,11.27
2022-12-01T05:23:08.263Z,9.95
2022-12-01T05:28:13.936Z,7.22
2022-12-01T05:33:17.692Z,10.57
2022-12-01T05:38:20.914Z,11.32
2022-12-01T05:43:28.934Z,10.57
2022-12-01T05:48:32.747Z,16.45
2022-12-01T05:53:35.683Z,12.73
2022-12-01T05:58:38.631Z,13.07
2022-12-01T06:03:43.646Z,10.23
2022-12-01T06:08:46.689Z,12.15
2022-12-01T06:13:49.878Z,11.00
2022-12-01T06:18:52.773Z,13.43
2022-12-01T06:23:55.733Z,10.98
2022-12-01T06:28:58.687Z,11.38
2022-12-01T06:34:01.571Z,9.90
2022-12-01T06:39:10.336Z,11.43
2022-12-01T06:44:13.595Z,13.23
2022-12-01T06:49:16.770Z,13.68
2022-12-01T06:54:19.780Z,12.85
2022-12-01T06:59:22.765Z,9.43
2022-12-01T07:04:26.221Z,11.43
2022-12-01T07:09:29.359Z,9.88
2022-12-01T07:14:32.580Z,9.68
2022-12-01T07:19:36.137Z,10.43
2022-12-01T07:24:39.047Z,10.55
2022-12-01T07:29:41.981Z,10.55
2022-12-01T07:34:44.998Z,13.93
2022-12-01T07:39:48.218Z,13.85
2022-12-01T07:44:51.371Z,13.52
2022-12-01T07:49:54.245Z,16.27
2022-12-01T07:54:57.159Z,13.00
2022-12-01T08:00:00.106Z,12.27
2022-12-01T08:05:03.126Z,15.77
2022-12-01T08:10:06.482Z,13.80
2022-12-01T08:15:10.208Z,16.88
2022-12-01T08:20:13.361Z,14.20
2022-12-01T08:25:16.310Z,20.13
2022-12-01T08:30:19.398Z,20.70
2022-12-01T08:35:22.397Z,15.77
2022-12-01T08:40:25.292Z,16.85
2022-12-01T08:45:28.272Z,14.27
2022-12-01T08:50:31.292Z,12.77
2022-12-01T08:55:34.236Z,17.05
2022-12-01T09:00:37.289Z,11.88
2022-12-01T09:05:40.692Z,17.90
2022-12-01T09:10:52.397Z,18.00
2022-12-01T09:16:00.294Z,15.55
2022-12-01T09:21:20.436Z,18.95
2022-12-01T09:26:23.690Z,11.57
2022-12-01T09:31:27.266Z,19.63
2022-12-01T09:36:32.613Z,16.85
2022-12-01T09:41:45.037Z,17.90
2022-12-01T09:51:56.387Z,14.68
2022-12-01T09:57:00.550Z,17.33
2022-12-01T10:02:11.815Z,13.43
2022-12-01T10:07:27.658Z,10.82
2022-12-01T10:12:36.704Z,9.40
2022-12-01T10:18:18.012Z,8.18
2022-12-01T10:23:44.670Z,8.18
2022-12-01T10:28:58.395Z,9.45
2022-12-01T10:34:08.382Z,10.10
2022-12-01T10:39:29.492Z,8.40
2022-12-01T10:44:33.172Z,7.38
2022-12-01T10:49:41.172Z,10.05
2022-12-01T10:54:44.137Z,11.43
2022-12-01T10:59:59.210Z,9.98
2022-12-01T11:05:07.579Z,10.65
2022-12-01T11:10:18.985Z,12.80
2022-12-01T11:15:29.232Z,11.00
2022-12-01T11:20:38.753Z,13.23
2022-12-01T11:25:41.733Z,9.00
2022-12-01T11:30:44.753Z,14.60
2022-12-01T11:35:49.932Z,14.63
2022-12-01T11:40:55.618Z,14.02
2022-12-01T11:46:02.796Z,15.65
2022-12-01T11:51:27.365Z,20.42
2022-12-01T11:56:31.604Z,10.13
2022-12-01T12:01:49.288Z,8.70
2022-12-01T12:07:02.994Z,14.15
2022-12-01T12:12:20.984Z,8.80
2022-12-01T12:17:35.788Z,15.57
2022-12-01T12:22:54.981Z,12.40
2022-12-01T12:28:33.443Z,7.13
2022-12-01T12:34:13.654Z,5.90
2022-12-01T12:39:19.174Z,5.43
2022-12-01T12:44:42.582Z,5.05
2022-12-01T12:49:57.706Z,4.82
2022-12-01T12:55:12.143Z,4.53
2022-12-01T13:00:19.554Z,5.25
2022-12-01T13:05:45.901Z,5.88
2022-12-01T13:11:03.371Z,6.90
2022-12-01T13:16:13.567Z,5.93
2022-12-01T13:21:21.706Z,6.10
2022-12-01T13:26:25.151Z,6.18
2022-12-01T13:31:28.319Z,6.60
2022-12-01T13:36:49.472Z,8.00
2022-12-01T13:42:06.353Z,4.55
2022-12-01T13:47:12.449Z,4.88
2022-12-01T13:52:27.054Z,5.38
2022-12-01T13:57:33.369Z,6.63
2022-12-01T14:02:37.039Z,6.65
2022-12-01T14:07:40.812Z,5.55
2022-12-01T14:12:46.456Z,5.80
2022-12-01T14:18:00.906Z,7.22
2022-12-01T14:23:24.591Z,7.45
2022-12-01T14:28:55.679Z,7.65
2022-12-01T14:34:03.034Z,6.63
2022-12-01T14:39:24.324Z,8.63
2022-12-01T14:44:44.574Z,7.85
2022-12-01T14:49:53.941Z,7.07
2022-12-01T14:55:02.304Z,6.60
2022-12-01T15:00:15.234Z,6.53
2022-12-01T15:05:20.730Z,8.45
2022-12-01T15:10:35.468Z,8.43
2022-12-01T15:20:46.340Z,7.43
2022-12-01T15:25:50.819Z,7.57
2022-12-01T15:30:55.579Z,6.90
2022-12-01T15:36:00.126Z,10.68
2022-12-01T15:46:34.683Z,6.70
2022-12-01T15:51:37.791Z,8.52
2022-12-01T15:56:42.090Z,9.10
2022-12-01T16:01:45.812Z,7.53
2022-12-01T16:07:08.600Z,7.32
2022-12-01T16:12:17.933Z,8.05
2022-12-01T16:17:21.588Z,7.13
2022-12-01T16:22:25.426Z,8.30
2022-12-01T16:27:30.638Z,6.82
2022-12-01T16:32:41.043Z,7.13
2022-12-01T16:37:44.083Z,7.82
2022-12-01T16:42:48.796Z,8.20
2022-12-01T16:47:51.680Z,7.90
2022-12-01T16:52:54.632Z,8.48
2022-12-01T16:57:57.923Z,7.03
2022-12-01T17:03:01.547Z,7.65
2022-12-01T17:08:04.905Z,6.72
2022-12-01T17:13:07.880Z,7.20
2022-12-01T17:18:11.711Z,7.80
2022-12-01T17:23:14.645Z,6.57
2022-12-01T17:28:18.142Z,5.40
2022-12-01T17:33:21.357Z,6.85
2022-12-01T17:38:24.416Z,5.82
2022-12-01T17:43:27.316Z,6.45
2022-12-01T17:48:30.446Z,6.20
2022-12-01T17:53:33.728Z,5.97
2022-12-01T17:58:37.385Z,5.93
2022-12-01T18:03:40.307Z,6.30
2022-12-01T18:08:43.755Z,6.45
2022-12-01T18:13:49.643Z,6.85
2022-12-01T18:18:53.851Z,5.97
2022-12-01T18:23:59.782Z,4.80
2022-12-01T18:29:06.485Z,5.85
2022-12-01T18:34:11.235Z,4.80
2022-12-01T18:39:14.369Z,5.97
2022-12-01T18:44:17.508Z,5.15
2022-12-01T18:49:20.619Z,6.07
2022-12-01T18:54:23.524Z,5.80
2022-12-01T18:59:27.254Z,4.65
2022-12-01T19:04:30.876Z,5.43
2022-12-01T19:09:34.022Z,5.07
2022-12-01T19:14:37.043Z,5.40
2022-12-01T19:19:40.057Z,4.60
2022-12-01T19:24:49.876Z,4.60
2022-12-01T19:29:54.230Z,5.20
2022-12-01T19:34:57.410Z,5.43
2022-12-01T19:40:00.398Z,4.10
2022-12-01T19:45:04.134Z,5.40
2022-12-01T19:50:07.896Z,5.00
2022-12-01T19:55:11.107Z,4.93
2022-12-01T20:00:14.288Z,4.88
2022-12-01T20:05:17.290Z,5.15
2022-12-01T20:10:20.727Z,4.85
2022-12-01T20:15:23.650Z,3.35
2022-12-01T20:20:26.763Z,4.35
2022-12-01T20:25:29.712Z,4.43
2022-12-01T20:30:32.559Z,5.22
2022-12-01T20:35:35.800Z,4.53
2022-12-01T20:40:38.698Z,4.15
2022-12-01T20:45:43.019Z,4.30
2022-12-01T20:50:46.020Z,4.22
2022-12-01T20:55:49.115Z,3.63
2022-12-01T21:00:52.041Z,5.40
2022-12-01T21:05:55.028Z,4.20
2022-12-01T21:10:58.388Z,5.20
2022-12-01T21:16:06.939Z,4.47
2022-12-01T21:21:22.740Z,4.60
2022-12-01T21:26:26.184Z,5.03
2022-12-01T21:31:29.422Z,4.75
2022-12-01T21:36:32.575Z,3.72
2022-12-01T21:41:35.735Z,4.93
2022-12-01T21:46:41.660Z,3.92
2022-12-01T21:51:45.068Z,4.97
2022-12-01T21:56:55.697Z,5.45
2022-12-01T22:01:58.731Z,4.95
2022-12-01T22:07:01.624Z,4.60
2022-12-01T22:12:07.642Z,4.88
2022-12-01T22:17:10.526Z,4.72
2022-12-01T22:22:15.951Z,3.95
2022-12-01T22:27:38.456Z,4.18
2022-12-01T22:32:59.801Z,5.13
2022-12-01T22:38:09.035Z,4.18
2022-12-01T22:43:18.040Z,3.75
2022-12-01T22:48:44.250Z,4.25
2022-12-01T22:53:47.662Z,4.55
2022-12-01T22:58:50.864Z,4.53
2022-12-01T23:04:00.268Z,4.10
2022-12-01T23:09:03.899Z,4.40
2022-12-01T23:14:13.990Z,4.28
2022-12-01T23:19:17.137Z,4.55
2022-12-01T23:24:20.135Z,4.53
2022-12-01T23:29:23.562Z,4.22
2022-12-01T23:34:26.641Z,3.78
2022-12-01T23:39:34.738Z,3.90
2022-12-01T23:44:42.698Z,3.78
2022-12-01T23:49:47.133Z,4.35
2022-12-01T23:54:50.411Z,4.30
